createdAt,value
2023-01-27T00:00:54.687Z,17.65
2023-01-27T00:03:22.249Z,16.95
2023-01-27T00:05:49.685Z,17.55
2023-01-27T00:08:17.077Z,17.98
2023-01-27T00:10:43.880Z,17.60
2023-01-27T00:13:31.974Z,18.40
2023-01-27T00:15:58.758Z,18.50
2023-01-27T00:18:25.828Z,18.63
2023-01-27T00:21:11.295Z,18.83
2023-01-27T00:23:56.662Z,19.23
2023-01-27T00:26:23.724Z,19.30
2023-01-27T00:28:50.467Z,18.13
2023-01-27T00:31:36.405Z,17.88
2023-01-27T00:36:38.562Z,17.55
2023-01-27T00:39:06.799Z,18.67
2023-01-27T00:41:34.188Z,19.13
2023-01-27T00:44:01.899Z,18.48
2023-01-27T00:46:29.310Z,18.52
2023-01-27T00:48:56.143Z,18.50
2023-01-27T00:51:23.977Z,18.73
2023-01-27T00:53:50.991Z,17.38
2023-01-27T00:56:17.915Z,16.80
2023-01-27T00:58:44.712Z,17.55
2023-01-27T01:01:14.524Z,17.90
2023-01-27T01:03:41.716Z,19.13
2023-01-27T01:06:10.766Z,18.25
2023-01-27T01:08:38.838Z,17.17
2023-01-27T01:11:11.505Z,17.73
2023-01-27T01:13:38.273Z,16.55
2023-01-27T01:16:17.009Z,16.38
2023-01-27T01:18:44.128Z,16.90
2023-01-27T01:21:11.523Z,17.40
2023-01-27T01:23:40.114Z,16.88
2023-01-27T01:26:06.907Z,16.55
2023-01-27T01:28:33.737Z,17.00
2023-01-27T01:31:12.352Z,18.20
2023-01-27T01:33:39.498Z,18.75
2023-01-27T01:36:11.556Z,17.23
2023-01-27T01:38:38.399Z,17.35
2023-01-27T01:41:07.199Z,16.40
2023-01-27T01:43:35.023Z,17.13
2023-01-27T01:46:03.086Z,17.27
2023-01-27T01:48:37.600Z,16.08
2023-01-27T01:51:10.848Z,16.88
2023-01-27T01:53:43.281Z,16.63
2023-01-27T01:56:16.717Z,16.58
2023-01-27T01:58:45.606Z,16.88
2023-01-27T02:01:15.247Z,15.93
2023-01-27T02:03:45.087Z,15.93
2023-01-27T02:06:13.371Z,15.57
2023-01-27T02:08:43.832Z,15.57
2023-01-27T02:11:11.289Z,14.10
2023-01-27T02:13:39.670Z,15.73
2023-01-27T02:16:07.518Z,15.00
2023-01-27T02:18:34.417Z,14.80
2023-01-27T02:21:01.688Z,14.50
2023-01-27T02:23:34.604Z,15.27
2023-01-27T02:26:21.979Z,12.93
2023-01-27T02:29:00.631Z,13.80
2023-01-27T02:31:27.526Z,15.93
2023-01-27T02:34:05.055Z,14.70
2023-01-27T02:36:34.849Z,14.57
2023-01-27T02:39:02.820Z,14.48
2023-01-27T02:41:37.738Z,14.25
2023-01-27T02:44:04.752Z,14.48
2023-01-27T02:46:31.554Z,14.93
2023-01-27T02:48:58.837Z,14.50
2023-01-27T02:51:25.626Z,14.80
2023-01-27T02:53:52.452Z,14.18
2023-01-27T02:56:19.344Z,14.23
2023-01-27T02:58:46.131Z,13.68
2023-01-27T03:01:12.944Z,14.90
2023-01-27T03:03:44.127Z,15.10
2023-01-27T03:06:11.356Z,15.15
2023-01-27T03:08:38.235Z,15.32
2023-01-27T03:11:05.265Z,14.85
2023-01-27T03:13:32.175Z,13.93
2023-01-27T03:16:18.306Z,14.05
2023-01-27T03:18:49.709Z,14.40
2023-01-27T03:21:20.663Z,13.15
2023-01-27T03:23:49.099Z,13.70
2023-01-27T03:26:16.155Z,14.85
2023-01-27T03:28:42.968Z,13.98
2023-01-27T03:31:21.765Z,13.57
2023-01-27T03:33:48.766Z,13.80
2023-01-27T03:36:34.157Z,13.27
2023-01-27T03:39:19.661Z,13.93
2023-01-27T03:42:05.137Z,14.90
2023-01-27T03:44:50.622Z,14.02
2023-01-27T03:47:17.232Z,11.98
2023-01-27T03:49:44.007Z,13.43
2023-01-27T03:52:10.752Z,12.68
2023-01-27T03:54:37.628Z,13.73
2023-01-27T03:57:06.113Z,12.55
2023-01-27T03:59:33.616Z,12.85
2023-01-27T04:02:20.445Z,13.35
2023-01-27T04:05:06.016Z,12.70
2023-01-27T04:07:35.796Z,13.90
2023-01-27T04:10:04.164Z,12.75
2023-01-27T04:12:31.052Z,13.27
2023-01-27T04:14:57.914Z,12.30
2023-01-27T04:17:24.744Z,13.23
2023-01-27T04:19:51.548Z,13.30
2023-01-27T04:22:18.672Z,11.98
2023-01-27T04:24:45.376Z,12.27
2023-01-27T04:27:15.607Z,12.57
2023-01-27T04:29:42.921Z,12.68
2023-01-27T04:32:12.307Z,12.25
2023-01-27T04:34:40.068Z,12.13
2023-01-27T04:37:08.401Z,12.75
2023-01-27T04:39:35.819Z,12.65
2023-01-27T04:42:02.637Z,12.25
2023-01-27T04:44:29.388Z,13.00
2023-01-27T04:46:56.095Z,12.93
2023-01-27T04:49:22.857Z,12.48
2023-01-27T04:51:49.532Z,11.35
2023-01-27T04:54:17.079Z,12.65
2023-01-27T04:56:56.036Z,12.75
2023-01-27T04:59:22.701Z,12.68
2023-01-27T05:01:49.376Z,12.80
2023-01-27T05:04:16.143Z,13.27
2023-01-27T05:06:42.790Z,13.10
2023-01-27T05:09:09.474Z,12.98
2023-01-27T05:11:36.245Z,12.23
2023-01-27T05:14:02.940Z,13.35
2023-01-27T05:16:29.777Z,12.63
2023-01-27T05:18:56.979Z,14.00
2023-01-27T05:21:28.205Z,12.75
2023-01-27T05:23:54.997Z,13.70
2023-01-27T05:26:24.729Z,13.68
2023-01-27T05:28:52.931Z,12.98
2023-01-27T05:31:25.086Z,13.88
2023-01-27T05:33:54.370Z,14.13
2023-01-27T05:36:22.571Z,13.50
2023-01-27T05:38:49.340Z,12.98
2023-01-27T05:41:17.597Z,12.90
2023-01-27T05:43:45.981Z,12.13
2023-01-27T05:46:18.312Z,12.52
2023-01-27T05:48:47.809Z,14.23
2023-01-27T05:51:16.031Z,13.02
2023-01-27T05:53:43.812Z,13.93
2023-01-27T05:56:14.200Z,14.27
2023-01-27T05:58:41.740Z,13.65
2023-01-27T06:01:13.791Z,13.73
2023-01-27T06:03:40.898Z,13.60
2023-01-27T06:06:08.460Z,12.75
2023-01-27T06:08:36.208Z,13.75
2023-01-27T06:11:03.094Z,13.13
2023-01-27T06:13:30.154Z,14.50
2023-01-27T06:15:56.939Z,12.82
2023-01-27T06:18:24.233Z,12.75
2023-01-27T06:20:50.940Z,14.20
2023-01-27T06:23:18.530Z,12.65
2023-01-27T06:25:48.275Z,12.57
2023-01-27T06:28:28.251Z,12.57
2023-01-27T06:30:57.364Z,12.88
2023-01-27T06:33:24.175Z,12.35
2023-01-27T06:35:50.980Z,12.15
2023-01-27T06:38:17.713Z,12.45
2023-01-27T06:40:44.744Z,13.30
2023-01-27T06:43:14.556Z,13.30
2023-01-27T06:45:41.729Z,12.50
2023-01-27T06:48:09.028Z,12.85
2023-01-27T06:50:36.204Z,13.65
2023-01-27T06:53:06.060Z,13.25
2023-01-27T06:55:33.921Z,12.98
2023-01-27T06:58:02.421Z,12.32
2023-01-27T07:00:29.438Z,13.10
2023-01-27T07:02:56.647Z,13.20
2023-01-27T07:05:23.457Z,12.88
2023-01-27T07:07:50.578Z,11.88
2023-01-27T07:10:17.769Z,12.25
2023-01-27T07:12:44.467Z,13.27
2023-01-27T07:15:12.055Z,12.88
2023-01-27T07:17:39.614Z,12.18
2023-01-27T07:20:08.011Z,12.98
2023-01-27T07:22:34.972Z,13.27
2023-01-27T07:25:02.696Z,12.27
2023-01-27T07:27:29.633Z,12.82
2023-01-27T07:29:56.505Z,12.85
2023-01-27T07:32:23.321Z,12.55
2023-01-27T07:34:50.063Z,12.52
2023-01-27T07:37:17.145Z,13.32
2023-01-27T07:39:43.954Z,12.30
2023-01-27T07:42:10.631Z,12.85
2023-01-27T07:44:37.484Z,12.52
2023-01-27T07:47:05.586Z,12.65
2023-01-27T07:49:32.315Z,12.73
2023-01-27T07:51:59.186Z,12.55
2023-01-27T07:54:25.855Z,12.90
2023-01-27T07:56:52.552Z,13.00
2023-01-27T07:59:19.597Z,13.45
2023-01-27T08:01:48.326Z,12.73
2023-01-27T08:04:15.356Z,13.10
2023-01-27T08:06:42.144Z,12.82
2023-01-27T08:09:08.807Z,12.98
2023-01-27T08:11:35.840Z,12.70
2023-01-27T08:14:02.909Z,12.80
2023-01-27T08:16:29.988Z,12.32
2023-01-27T08:18:56.812Z,13.30
2023-01-27T08:21:25.223Z,12.82
2023-01-27T08:23:53.735Z,13.55
2023-01-27T08:26:20.581Z,12.73
2023-01-27T08:28:47.599Z,13.80
2023-01-27T08:31:16.915Z,13.32
2023-01-27T08:33:45.854Z,12.82
2023-01-27T08:36:14.857Z,12.43
2023-01-27T08:38:42.707Z,12.48
2023-01-27T08:41:16.189Z,12.80
2023-01-27T08:43:43.796Z,11.80
2023-01-27T08:46:10.946Z,11.65
2023-01-27T08:48:38.485Z,11.25
2023-01-27T08:51:06.621Z,12.82
2023-01-27T08:53:34.564Z,12.25
2023-01-27T08:56:05.966Z,13.65
2023-01-27T08:58:34.787Z,12.00
2023-01-27T09:01:03.282Z,11.65
2023-01-27T09:03:31.819Z,13.02
2023-01-27T09:05:59.150Z,12.40
2023-01-27T09:08:26.961Z,12.38
2023-01-27T09:10:54.043Z,11.30
2023-01-27T09:13:24.151Z,12.45
2023-01-27T09:15:54.642Z,11.35
2023-01-27T09:18:21.907Z,11.93
2023-01-27T09:20:48.634Z,11.20
2023-01-27T09:23:15.635Z,11.60
2023-01-27T09:25:42.407Z,11.48
2023-01-27T09:28:17.205Z,11.52
2023-01-27T09:30:47.495Z,10.75
2023-01-27T09:33:17.222Z,10.43
2023-01-27T09:35:47.696Z,11.20
2023-01-27T09:38:18.353Z,9.77
2023-01-27T09:41:15.823Z,10.02
2023-01-27T09:44:04.337Z,10.35
2023-01-27T09:46:40.112Z,9.90
2023-01-27T09:49:20.105Z,9.68
2023-01-27T09:52:14.404Z,9.65
2023-01-27T09:54:53.255Z,8.93
2023-01-27T09:57:29.163Z,9.25
2023-01-27T10:00:14.157Z,9.40
2023-01-27T10:02:57.236Z,10.23
2023-01-27T10:05:38.766Z,9.00
2023-01-27T10:08:14.408Z,9.70
2023-01-27T10:13:28.199Z,8.90
2023-01-27T10:16:35.463Z,9.15
2023-01-27T10:19:08.363Z,9.05
2023-01-27T10:21:51.199Z,8.43
2023-01-27T10:25:05.150Z,8.48
2023-01-27T10:27:37.122Z,9.02
2023-01-27T10:30:14.199Z,8.93
2023-01-27T10:32:45.436Z,9.05
2023-01-27T10:35:12.089Z,8.52
2023-01-27T10:38:08.575Z,9.05
2023-01-27T10:43:29.414Z,8.50
2023-01-27T10:46:22.327Z,9.27
2023-01-27T10:49:07.687Z,8.45
2023-01-27T10:51:42.165Z,8.38
2023-01-27T10:54:22.847Z,8.48
2023-01-27T10:56:59.745Z,7.13
2023-01-27T10:59:29.882Z,8.18
2023-01-27T11:02:00.728Z,7.30
2023-01-27T11:04:43.260Z,8.50
2023-01-27T11:07:17.766Z,7.60
2023-01-27T11:09:57.066Z,7.70
2023-01-27T11:12:37.418Z,7.93
2023-01-27T11:15:34.489Z,7.53
2023-01-27T11:18:26.415Z,7.65
2023-01-27T11:20:56.284Z,7.95
2023-01-27T11:23:28.038Z,8.68
2023-01-27T11:26:09.929Z,8.57
2023-01-27T11:29:06.291Z,7.72
2023-01-27T11:31:48.537Z,6.95
2023-01-27T11:34:28.051Z,7.15
2023-01-27T11:36:55.034Z,7.45
2023-01-27T11:39:21.997Z,7.32
2023-01-27T11:41:52.039Z,7.22
2023-01-27T11:44:32.112Z,6.75
2023-01-27T11:46:59.264Z,6.72
2023-01-27T11:49:36.825Z,7.47
2023-01-27T11:52:17.337Z,7.00
2023-01-27T11:54:52.035Z,6.95
2023-01-27T11:57:28.222Z,6.90
2023-01-27T12:00:05.968Z,6.93
2023-01-27T12:02:39.995Z,7.00
2023-01-27T12:05:14.637Z,6.90
2023-01-27T12:07:51.862Z,7.43
2023-01-27T12:10:36.066Z,7.03
2023-01-27T12:13:20.641Z,6.50
2023-01-27T12:15:58.964Z,7.57
2023-01-27T12:18:26.392Z,7.55
2023-01-27T12:21:02.299Z,7.53
2023-01-27T12:23:40.121Z,7.22
2023-01-27T12:26:13.416Z,7.20
2023-01-27T12:28:47.576Z,7.53
2023-01-27T12:31:28.619Z,6.97
2023-01-27T12:34:19.292Z,6.63
2023-01-27T12:36:47.780Z,7.60
2023-01-27T12:39:33.295Z,7.50
2023-01-27T12:42:00.192Z,6.30
2023-01-27T12:44:39.874Z,5.93
2023-01-27T12:47:31.347Z,7.05
2023-01-27T12:50:28.642Z,7.50
2023-01-27T12:53:16.656Z,6.55
2023-01-27T12:56:00.099Z,7.03
2023-01-27T12:58:33.671Z,7.05
2023-01-27T13:01:28.017Z,6.80
2023-01-27T13:04:06.473Z,6.65
2023-01-27T13:06:43.550Z,7.57
2023-01-27T13:09:28.165Z,7.13
2023-01-27T13:12:01.316Z,7.50
2023-01-27T13:14:39.450Z,7.65
2023-01-27T13:17:27.777Z,7.53
2023-01-27T13:19:58.974Z,7.10
2023-01-27T13:22:27.119Z,7.70
2023-01-27T13:25:02.297Z,7.72
2023-01-27T13:27:38.699Z,7.07
2023-01-27T13:30:37.391Z,8.20
2023-01-27T13:33:33.242Z,7.75
2023-01-27T13:36:21.656Z,7.65
2023-01-27T13:39:12.135Z,7.10
2023-01-27T13:42:01.088Z,7.50
2023-01-27T13:44:33.079Z,7.68
2023-01-27T13:47:09.504Z,7.25
2023-01-27T13:50:16.809Z,6.88
2023-01-27T13:52:46.142Z,7.32
2023-01-27T13:55:14.760Z,7.40
2023-01-27T13:57:59.404Z,7.75
2023-01-27T14:00:37.759Z,7.70
2023-01-27T14:03:56.145Z,7.43
2023-01-27T14:06:43.902Z,7.82
2023-01-27T14:09:19.528Z,7.03
2023-01-27T14:17:37.143Z,8.00
2023-01-27T14:20:20.926Z,7.65
2023-01-27T14:23:00.115Z,7.60
2023-01-27T14:25:39.136Z,7.10
2023-01-27T14:28:22.542Z,7.00
2023-01-27T14:30:58.920Z,7.05
2023-01-27T14:34:03.368Z,7.40
2023-01-27T14:36:44.396Z,7.35
2023-01-27T14:39:29.703Z,8.05
2023-01-27T14:42:08.417Z,7.35
2023-01-27T14:45:05.933Z,7.50
2023-01-27T14:47:58.419Z,8.07
2023-01-27T14:50:35.895Z,7.63
2023-01-27T14:53:08.091Z,7.95
2023-01-27T14:56:03.499Z,7.65
2023-01-27T14:58:48.520Z,8.05
2023-01-27T15:01:42.733Z,8.10
2023-01-27T15:04:49.113Z,7.65
2023-01-27T15:07:41.286Z,7.72
2023-01-27T15:10:23.700Z,7.47
2023-01-27T15:13:17.927Z,8.05
2023-01-27T15:16:09.826Z,7.70
2023-01-27T15:18:59.640Z,7.90
2023-01-27T15:21:35.429Z,8.07
2023-01-27T15:24:19.395Z,8.07
2023-01-27T15:26:47.831Z,8.32
2023-01-27T15:29:16.608Z,7.80
2023-01-27T15:31:44.364Z,8.02
2023-01-27T15:34:23.295Z,7.88
2023-01-27T15:37:10.199Z,7.90
2023-01-27T15:40:06.095Z,8.15
2023-01-27T15:42:57.517Z,7.68
2023-01-27T15:45:29.197Z,8.10
2023-01-27T15:48:12.146Z,8.05
2023-01-27T15:50:55.505Z,7.53
2023-01-27T15:53:35.219Z,7.65
2023-01-27T15:56:03.257Z,8.25
2023-01-27T15:58:42.163Z,7.85
2023-01-27T16:01:22.510Z,8.30
2023-01-27T16:03:51.435Z,8.15
2023-01-27T16:06:24.616Z,8.10
2023-01-27T16:08:57.259Z,8.18
2023-01-27T16:11:30.051Z,7.72
2023-01-27T16:14:11.811Z,7.93
2023-01-27T16:17:03.069Z,7.55
2023-01-27T16:19:34.410Z,8.00
2023-01-27T16:22:05.625Z,7.28
2023-01-27T16:24:58.539Z,7.50
2023-01-27T16:27:46.624Z,7.60
2023-01-27T16:30:29.994Z,7.85
2023-01-27T16:33:24.957Z,7.45
2023-01-27T16:36:08.197Z,8.25
2023-01-27T16:38:43.694Z,8.15
2023-01-27T16:41:38.993Z,7.63
2023-01-27T16:44:19.372Z,8.55
2023-01-27T16:46:50.068Z,7.78
2023-01-27T16:49:40.730Z,7.30
2023-01-27T16:52:21.338Z,8.23
2023-01-27T16:54:54.408Z,7.63
2023-01-27T16:57:34.262Z,8.23
2023-01-27T17:00:20.916Z,8.52
2023-01-27T17:02:48.674Z,8.00
2023-01-27T17:05:17.436Z,8.60
2023-01-27T17:08:04.648Z,7.88
2023-01-27T17:10:35.533Z,8.77
2023-01-27T17:13:02.463Z,8.05
2023-01-27T17:15:34.995Z,8.77
2023-01-27T17:18:03.449Z,8.63
2023-01-27T17:20:34.308Z,7.60
2023-01-27T17:23:03.990Z,8.15
2023-01-27T17:25:39.689Z,8.60
2023-01-27T17:28:20.532Z,8.18
2023-01-27T17:30:48.066Z,8.82
2023-01-27T17:33:19.152Z,9.52
2023-01-27T17:35:52.329Z,8.85
2023-01-27T17:38:57.171Z,8.60
2023-01-27T17:41:37.693Z,9.35
2023-01-27T17:44:13.235Z,8.02
2023-01-27T17:49:14.479Z,8.30
2023-01-27T17:51:46.595Z,9.52
2023-01-27T17:54:30.668Z,8.00
2023-01-27T17:57:08.497Z,8.15
2023-01-27T17:59:40.351Z,8.85
2023-01-27T18:02:18.890Z,8.82
2023-01-27T18:04:46.743Z,8.40
2023-01-27T18:07:14.018Z,8.93
2023-01-27T18:09:54.419Z,8.52
2023-01-27T18:12:31.982Z,9.02
2023-01-27T18:14:59.472Z,9.38
2023-01-27T18:17:27.856Z,8.90
2023-01-27T18:19:56.614Z,8.40
2023-01-27T18:22:26.333Z,8.77
2023-01-27T18:25:03.608Z,9.43
2023-01-27T18:27:33.605Z,8.27
2023-01-27T18:30:11.977Z,8.15
2023-01-27T18:32:48.670Z,8.18
2023-01-27T18:35:27.940Z,7.75
2023-01-27T18:38:19.461Z,8.40
2023-01-27T18:40:47.325Z,9.18
2023-01-27T18:43:14.010Z,8.45
2023-01-27T18:45:42.896Z,9.55
2023-01-27T18:48:12.673Z,9.02
2023-01-27T18:50:45.358Z,9.00
2023-01-27T18:53:17.058Z,8.95
2023-01-27T18:55:44.242Z,9.27
2023-01-27T18:58:14.566Z,9.55
2023-01-27T19:00:53.241Z,9.95
2023-01-27T19:03:23.569Z,10.07
2023-01-27T19:05:51.187Z,9.38
2023-01-27T19:08:20.262Z,10.20
2023-01-27T19:10:48.003Z,9.70
2023-01-27T19:13:15.688Z,9.23
2023-01-27T19:15:52.126Z,9.52
2023-01-27T19:18:20.961Z,9.57
2023-01-27T19:20:48.059Z,9.38
2023-01-27T19:23:16.549Z,8.98
2023-01-27T19:25:45.691Z,9.00
2023-01-27T19:28:36.641Z,10.10
2023-01-27T19:31:04.002Z,9.10
2023-01-27T19:33:33.716Z,9.65
2023-01-27T19:36:14.022Z,10.10
2023-01-27T19:38:40.818Z,9.60
2023-01-27T19:41:09.804Z,9.32
2023-01-27T19:43:37.709Z,9.27
2023-01-27T19:46:15.465Z,9.75
2023-01-27T19:48:42.554Z,10.25
2023-01-27T19:51:11.382Z,10.93
2023-01-27T19:53:38.701Z,12.95
2023-01-27T19:56:16.002Z,10.85
2023-01-27T19:58:47.108Z,10.63
2023-01-27T20:01:13.913Z,10.85
2023-01-27T20:03:40.857Z,9.90
2023-01-27T20:06:16.912Z,10.02
2023-01-27T20:08:44.954Z,10.38
2023-01-27T20:11:40.487Z,10.95
2023-01-27T20:14:19.039Z,10.03
2023-01-27T20:16:46.814Z,11.07
2023-01-27T20:19:17.263Z,12.52
2023-01-27T20:21:45.975Z,11.18
2023-01-27T20:24:17.523Z,10.77
2023-01-27T20:26:44.595Z,10.90
2023-01-27T20:29:11.550Z,10.70
2023-01-27T20:31:39.571Z,11.90
2023-01-27T20:34:06.532Z,12.05
2023-01-27T20:36:33.293Z,11.35
2023-01-27T20:39:00.102Z,12.52
2023-01-27T20:41:26.863Z,12.15
2023-01-27T20:44:00.333Z,11.20
2023-01-27T20:46:28.522Z,12.70
2023-01-27T20:48:55.570Z,12.45
2023-01-27T20:51:22.318Z,11.73
2023-01-27T20:53:49.304Z,11.93
2023-01-27T20:56:18.877Z,13.05
2023-01-27T20:58:46.519Z,12.57
2023-01-27T21:01:19.488Z,12.45
2023-01-27T21:03:46.962Z,12.43
2023-01-27T21:06:15.777Z,11.77
2023-01-27T21:08:43.618Z,11.90
2023-01-27T21:11:12.821Z,11.55
2023-01-27T21:13:39.639Z,11.93
2023-01-27T21:16:06.643Z,12.25
2023-01-27T21:18:33.875Z,11.75
2023-01-27T21:21:02.853Z,12.68
2023-01-27T21:23:31.665Z,12.40
2023-01-27T21:26:04.751Z,11.68
2023-01-27T21:28:33.657Z,12.50
2023-01-27T21:31:08.865Z,12.07
2023-01-27T21:33:37.095Z,11.48
2023-01-27T21:36:05.716Z,12.68
2023-01-27T21:38:33.328Z,12.65
2023-01-27T21:41:09.595Z,11.30
2023-01-27T21:43:55.684Z,12.20
2023-01-27T21:46:22.612Z,11.80
2023-01-27T21:48:49.496Z,12.27
2023-01-27T21:51:16.393Z,12.45
2023-01-27T21:53:43.134Z,11.90
2023-01-27T21:56:10.951Z,12.80
2023-01-27T21:58:37.720Z,11.30
2023-01-27T22:01:08.823Z,11.02
2023-01-27T22:03:36.803Z,11.85
2023-01-27T22:06:06.095Z,12.10
2023-01-27T22:08:33.356Z,12.20
2023-01-27T22:11:10.381Z,12.30
2023-01-27T22:13:38.394Z,11.93
2023-01-27T22:16:05.544Z,11.32
2023-01-27T22:18:32.319Z,12.05
2023-01-27T22:21:02.390Z,11.40
2023-01-27T22:23:29.127Z,11.27
2023-01-27T22:25:55.929Z,11.90
2023-01-27T22:28:24.189Z,11.98
2023-01-27T22:30:51.076Z,12.32
2023-01-27T22:33:18.526Z,11.32
2023-01-27T22:35:45.443Z,11.95
2023-01-27T22:38:12.179Z,11.60
2023-01-27T22:40:39.056Z,12.07
2023-01-27T22:43:10.351Z,11.35
2023-01-27T22:45:40.523Z,12.70
2023-01-27T22:48:08.865Z,12.25
2023-01-27T22:50:36.755Z,12.05
2023-01-27T22:53:05.396Z,12.75
2023-01-27T22:55:32.450Z,11.75
2023-01-27T22:57:59.172Z,12.43
2023-01-27T23:00:25.888Z,12.18
2023-01-27T23:02:52.528Z,11.93
2023-01-27T23:05:19.212Z,12.57
2023-01-27T23:07:47.645Z,12.88
2023-01-27T23:10:14.454Z,12.75
2023-01-27T23:12:41.276Z,12.73
2023-01-27T23:15:09.208Z,13.25
2023-01-27T23:17:36.027Z,12.15
2023-01-27T23:20:03.316Z,13.30
2023-01-27T23:22:30.097Z,12.35
2023-01-27T23:24:56.797Z,12.73
2023-01-27T23:27:23.548Z,13.88
2023-01-27T23:29:50.411Z,13.57
2023-01-27T23:32:17.312Z,12.88
2023-01-27T23:34:44.032Z,13.25
2023-01-27T23:37:10.940Z,13.32
2023-01-27T23:39:37.672Z,12.07
2023-01-27T23:42:04.558Z,13.55
2023-01-27T23:44:31.514Z,12.45
2023-01-27T23:46:58.230Z,13.07
2023-01-27T23:49:24.994Z,12.73
2023-01-27T23:51:51.732Z,13.48
2023-01-27T23:54:18.468Z,12.98
2023-01-27T23:56:45.307Z,13.00
2023-01-27T23:59:13.308Z,13.68
